Time;durP1;ratioP1;P1;durP2;ratioP2;P2;SDS_P1;SDS_P2;PMS_P1;PMS_P2;Temp;Humidity;BMP_temperature;BMP_pressure;BME280_temperature;BME280_humidity;BME280_pressure;Samples;Min_cycle;Max_cycle;Signal;HPM_P1;HPM_P2
2022/03/20 00:00:22;;;;;;;46.75;22.17;;;;;;;4.68;30.72;103472.75;5071420;28;20102;-74
2022/03/20 00:02:49;;;;;;;42.58;21.20;;;;;;;4.45;30.98;103479.75;5072497;28;20048;-74
2022/03/20 00:05:17;;;;;;;44.50;21.30;;;;;;;5.00;30.30;103476.91;5072242;28;20055;-75
2022/03/20 00:07:44;;;;;;;37.72;20.60;;;;;;;4.69;30.76;103480.66;5072156;28;20119;-75
2022/03/20 00:10:11;;;;;;;51.08;20.95;;;;;;;4.50;30.99;103476.94;5070191;28;20079;-75
2022/03/20 00:12:38;;;;;;;41.78;21.08;;;;;;;4.91;30.48;103470.16;5070975;28;20071;-75
2022/03/20 00:15:05;;;;;;;45.83;22.60;;;;;;;4.63;30.90;103470.28;5070216;28;20135;-75
2022/03/20 00:17:32;;;;;;;44.20;22.15;;;;;;;4.89;30.74;103476.44;5071655;28;20143;-75
2022/03/20 00:19:58;;;;;;;43.30;22.88;;;;;;;4.65;30.75;103467.53;5071409;28;20128;-74
2022/03/20 00:22:26;;;;;;;43.53;21.40;;;;;;;4.34;31.40;103474.75;5071396;28;20044;-75
2022/03/20 00:24:53;;;;;;;43.00;21.77;;;;;;;4.41;31.26;103475.44;5072921;28;20104;-75
2022/03/20 00:27:19;;;;;;;45.60;21.85;;;;;;;4.72;30.69;103464.59;5071800;28;20048;-75
2022/03/20 00:29:46;;;;;;;44.75;22.05;;;;;;;4.17;31.23;103465.63;5070587;28;20049;-74
2022/03/20 00:32:14;;;;;;;48.13;22.15;;;;;;;4.55;30.79;103470.50;5071563;28;20143;-74
2022/03/20 00:34:40;;;;;;;47.90;21.80;;;;;;;4.44;30.88;103463.84;5071042;28;20044;-75
2022/03/20 00:37:08;;;;;;;45.50;21.15;;;;;;;4.75;30.48;103463.63;5061043;28;20136;-75
2022/03/20 00:39:35;;;;;;;53.10;22.65;;;;;;;4.54;30.43;103459.94;5071236;28;20041;-75
2022/03/20 00:42:02;;;;;;;45.55;21.67;;;;;;;4.44;30.76;103453.22;5070891;28;20105;-73
2022/03/20 00:44:28;;;;;;;44.72;19.75;;;;;;;4.34;30.80;103458.81;5072444;28;20127;-75
2022/03/20 00:46:54;;;;;;;49.58;20.85;;;;;;;4.21;31.08;103460.16;5060100;28;20090;-74
2022/03/20 00:49:21;;;;;;;49.60;20.77;;;;;;;4.27;30.66;103461.72;5051340;28;22233;-74
2022/03/20 00:51:48;;;;;;;49.50;20.35;;;;;;;4.21;31.05;103452.19;5050491;28;20124;-75
2022/03/20 00:54:14;;;;;;;44.55;21.30;;;;;;;4.29;30.74;103460.75;5051163;28;20129;-75
2022/03/20 00:56:41;;;;;;;49.47;21.80;;;;;;;4.24;30.72;103456.50;5050798;28;20051;-75
2022/03/20 00:59:07;;;;;;;44.25;20.77;;;;;;;4.16;30.74;103447.94;5052093;28;20459;-74
2022/03/20 01:01:34;;;;;;;44.58;21.85;;;;;;;4.52;30.46;103451.16;5051743;28;20120;-75
2022/03/20 01:04:01;;;;;;;45.10;21.45;;;;;;;4.36;30.45;103452.59;5052349;28;20076;-75
2022/03/20 01:06:27;;;;;;;45.00;22.35;;;;;;;4.34;30.53;103444.66;5051769;28;20531;-75
2022/03/20 01:08:53;;;;;;;38.38;20.70;;;;;;;4.10;30.43;103439.28;5051434;28;20055;-75
2022/03/20 01:11:20;;;;;;;46.00;20.60;;;;;;;4.08;30.78;103440.25;5052024;28;20080;-75
2022/03/20 01:13:47;;;;;;;41.17;20.95;;;;;;;4.14;30.08;103442.69;5051995;28;20072;-74
2022/03/20 01:16:13;;;;;;;41.33;19.75;;;;;;;4.19;30.12;103443.41;5051535;28;20072;-74
2022/03/20 01:18:40;;;;;;;48.78;21.63;;;;;;;4.46;29.73;103444.28;5051988;28;20045;-74
2022/03/20 01:21:07;;;;;;;39.13;19.90;;;;;;;4.11;30.02;103434.81;5051318;28;20091;-74
2022/03/20 01:23:34;;;;;;;40.90;20.50;;;;;;;4.62;29.83;103430.41;5052326;28;20075;-74
2022/03/20 01:26:00;;;;;;;47.70;21.85;;;;;;;4.52;29.76;103433.44;5055519;28;20128;-74
2022/03/20 01:28:26;;;;;;;52.97;20.83;;;;;;;4.34;29.54;103431.34;5038075;28;20124;-74
2022/03/20 01:30:55;;;;;;;45.17;19.73;;;;;;;4.06;30.10;103426.13;5055377;28;20119;-74
2022/03/20 01:33:21;;;;;;;48.80;20.52;;;;;;;3.92;30.51;103429.25;5055649;28;20102;-74
2022/03/20 01:35:48;;;;;;;51.85;20.70;;;;;;;4.04;29.94;103430.63;5055184;28;20552;-74
2022/03/20 01:38:20;;;;;;;44.80;21.17;;;;;;;4.19;30.14;103435.41;5055188;28;20048;-74
2022/03/20 01:40:47;;;;;;;48.45;20.50;;;;;;;4.30;29.90;103424.41;5055374;28;20091;-74
2022/03/20 01:43:15;;;;;;;45.75;20.27;;;;;;;4.12;30.30;103430.38;5055794;28;20064;-74
2022/03/20 01:45:41;;;;;;;44.08;20.55;;;;;;;4.03;30.10;103431.53;5055180;28;20155;-74
2022/03/20 01:48:08;;;;;;;41.97;19.50;;;;;;;4.20;30.00;103429.19;5055069;28;20049;-74
2022/03/20 01:50:35;;;;;;;43.45;19.05;;;;;;;4.31;30.11;103421.72;5054843;28;20437;-74
2022/03/20 01:53:06;;;;;;;47.08;20.48;;;;;;;4.19;29.76;103421.28;5055141;28;20440;-74
2022/03/20 01:55:32;;;;;;;40.63;19.48;;;;;;;3.72;30.64;103413.09;5055554;28;20103;-74
2022/03/20 01:57:59;;;;;;;41.47;20.33;;;;;;;3.90;30.41;103399.22;5054897;28;20053;-74
2022/03/20 02:00:27;;;;;;;45.30;19.73;;;;;;;3.88;30.51;103400.19;5054962;28;20045;-74
2022/03/20 02:02:54;;;;;;;45.75;20.17;;;;;;;3.92;30.62;103400.03;5054850;28;20045;-74
2022/03/20 02:09:08;;;;;;;39.47;19.30;;;;;;;3.38;31.27;103391.16;5054324;28;20392;-74
2022/03/20 02:11:35;;;;;;;42.47;19.65;;;;;;;3.65;31.19;103391.16;5053687;28;20119;-74
2022/03/20 02:14:02;;;;;;;44.95;21.52;;;;;;;3.96;30.42;103391.03;5053504;28;20057;-74
2022/03/20 02:16:28;;;;;;;46.10;20.00;;;;;;;3.54;30.99;103393.31;5053288;28;20067;-74
2022/03/20 02:18:55;;;;;;;39.35;20.08;;;;;;;4.00;30.55;103389.13;5054066;28;20049;-74
2022/03/20 02:21:40;;;;;;;48.58;20.83;;;;;;;3.57;31.05;103378.16;5057913;28;20048;-74
2022/03/20 02:24:27;;;;;;;50.20;20.70;;;;;;;3.82;31.26;103380.88;5070295;28;20040;-74
2022/03/20 02:27:12;;;;;;;53.75;21.20;;;;;;;3.73;31.06;103380.31;5033582;28;20499;-74
2022/03/20 02:29:39;;;;;;;38.72;19.52;;;;;;;3.24;32.02;103371.25;5051952;28;20067;-74
2022/03/20 02:32:08;;;;;;;46.53;20.45;;;;;;;3.53;32.12;103379.19;5073748;28;20489;-74
2022/03/20 02:34:35;;;;;;;44.83;22.05;;;;;;;3.50;32.04;103373.97;5072440;28;20488;-74
2022/03/20 02:37:02;;;;;;;46.88;20.30;;;;;;;3.51;32.40;103377.47;5071412;28;20139;-74
2022/03/20 02:39:29;;;;;;;52.35;20.83;;;;;;;3.30;32.00;103379.88;5061057;28;20047;-75
2022/03/20 02:41:59;;;;;;;48.63;21.10;;;;;;;3.11;32.34;103379.59;5066779;28;20083;-73
2022/03/20 02:44:52;;;;;;;53.17;21.80;;;;;;;3.22;32.51;103375.75;5043151;28;20135;-74
2022/03/20 02:47:23;;;;;;;46.13;19.70;;;;;;;3.05;32.81;103376.25;5054564;28;20072;-74
2022/03/20 02:50:03;;;;;;;42.75;19.25;;;;;;;3.20;32.77;103377.56;5061932;28;20045;-75
2022/03/20 02:52:41;;;;;;;45.83;21.00;;;;;;;3.46;31.96;103364.38;5063811;28;20040;-74
2022/03/20 02:55:08;;;;;;;45.28;20.10;;;;;;;3.22;32.19;103371.31;5071577;28;20363;-75
2022/03/20 02:57:34;;;;;;;40.28;19.20;;;;;;;3.35;32.22;103379.78;5056447;28;20568;-74
2022/03/20 03:00:05;;;;;;;47.60;20.27;;;;;;;3.28;32.26;103368.47;5051011;28;20065;-74
2022/03/20 03:02:38;;;;;;;37.53;16.55;;;;;;;3.43;31.81;103360.94;5051228;28;20045;-74
2022/03/20 03:05:05;;;;;;;47.13;19.95;;;;;;;3.24;32.45;103369.50;5059485;28;20140;-73
2022/03/20 03:10:55;;;;;;;51.17;20.75;;;;;;;3.03;32.63;103370.13;5072149;28;20467;-73
2022/03/20 03:13:10;;;;;;;43.70;20.48;;;;;;;3.06;32.91;103359.44;5070542;28;20135;-73
2022/03/20 03:15:36;;;;;;;43.47;21.23;;;;;;;2.97;32.52;103362.38;5072190;28;20131;-74
2022/03/20 03:18:03;;;;;;;51.08;20.85;;;;;;;2.74;33.09;103363.91;5072752;28;20465;-74
2022/03/20 03:20:30;;;;;;;48.53;21.20;;;;;;;3.41;31.95;103352.16;5065536;28;20485;-75
2022/03/20 03:22:57;;;;;;;41.53;20.13;;;;;;;3.07;32.48;103362.03;5067563;28;20139;-74
2022/03/20 03:25:24;;;;;;;45.28;21.13;;;;;;;3.23;32.22;103353.59;5055318;28;20041;-73
2022/03/20 03:27:54;;;;;;;47.95;19.83;;;;;;;3.12;32.22;103356.59;5045913;28;20128;-75
2022/03/20 03:30:20;;;;;;;45.72;20.92;;;;;;;3.21;32.39;103356.31;5072821;28;20534;-75
2022/03/20 03:32:47;;;;;;;48.85;20.35;;;;;;;2.90;32.77;103362.56;5073548;28;20131;-74
2022/03/20 03:38:01;;;;;;;50.90;21.08;;;;;;;3.19;32.34;103363.44;5064790;28;20484;-74
2022/03/20 03:40:28;;;;;;;45.40;20.92;;;;;;;3.10;32.02;103358.41;5050915;28;20064;-73
2022/03/20 03:42:54;;;;;;;42.05;19.13;;;;;;;3.22;31.90;103357.19;5052382;28;20075;-73
2022/03/20 03:45:23;;;;;;;47.65;22.10;;;;;;;3.02;32.09;103356.00;5069771;28;20049;-74
2022/03/20 03:47:50;;;;;;;44.42;19.25;;;;;;;2.97;32.51;103357.94;5062895;28;20098;-74
2022/03/20 03:50:17;;;;;;;47.88;20.38;;;;;;;2.90;32.70;103357.25;5070889;28;20064;-75
2022/03/20 03:52:43;;;;;;;41.25;20.15;;;;;;;2.89;32.39;103350.22;5057167;28;20515;-74
2022/03/20 03:55:10;;;;;;;47.10;21.20;;;;;;;2.96;32.48;103360.63;5059936;28;20063;-74
2022/03/20 03:57:36;;;;;;;43.60;20.92;;;;;;;2.91;32.83;103355.47;5032806;28;20569;-74
2022/03/20 04:00:04;;;;;;;43.08;21.05;;;;;;;3.12;32.30;103362.75;5061385;28;20572;-75
2022/03/20 04:02:30;;;;;;;42.95;20.08;;;;;;;2.96;32.48;103352.66;5070261;28;20040;-74
2022/03/20 04:04:57;;;;;;;38.25;18.83;;;;;;;2.81;32.78;103349.56;5068712;28;20520;-74
2022/03/20 04:07:23;;;;;;;46.67;20.92;;;;;;;3.00;32.42;103352.53;5067367;28;20076;-75
2022/03/20 04:09:50;;;;;;;51.92;21.70;;;;;;;2.81;33.08;103343.38;5050484;28;20091;-74
2022/03/20 04:12:16;;;;;;;46.80;20.45;;;;;;;3.12;32.56;103341.53;5050582;28;20044;-74
2022/03/20 04:14:44;;;;;;;43.08;20.63;;;;;;;2.74;33.33;103332.09;5048794;28;20133;-74
2022/03/20 04:17:10;;;;;;;47.38;20.77;;;;;;;2.72;33.30;103339.25;5050535;28;20147;-74
2022/03/20 04:19:37;;;;;;;59.20;21.35;;;;;;;2.67;33.47;103322.59;5056166;28;20484;-73
2022/03/20 04:22:04;;;;;;;44.25;21.00;;;;;;;2.59;33.41;103335.22;5042138;28;20069;-73
2022/03/20 04:24:31;;;;;;;49.53;22.67;;;;;;;2.83;33.44;103339.78;5069887;28;20068;-75
2022/03/20 04:27:00;;;;;;;50.60;21.85;;;;;;;2.55;33.36;103333.56;5067412;28;20084;-73
2022/03/20 04:29:30;;;;;;;47.03;21.00;;;;;;;2.46;33.63;103337.31;5051535;28;20091;-73
2022/03/20 04:31:56;;;;;;;48.80;21.65;;;;;;;2.88;33.39;103337.84;5050168;28;20430;-73
2022/03/20 04:34:26;;;;;;;46.97;22.00;;;;;;;2.30;34.16;103336.88;5051083;28;20041;-74
2022/03/20 04:36:56;;;;;;;50.90;21.80;;;;;;;2.02;34.79;103333.25;5065221;28;20049;-73
2022/03/20 04:39:23;;;;;;;51.20;22.23;;;;;;;2.41;33.84;103332.16;5069802;28;20136;-73
2022/03/20 04:41:50;;;;;;;46.63;21.70;;;;;;;2.53;33.99;103341.53;5070886;28;20131;-74
2022/03/20 04:44:17;;;;;;;52.35;21.92;;;;;;;2.37;33.97;103346.41;5070351;28;20048;-73
2022/03/20 04:46:45;;;;;;;48.38;20.50;;;;;;;2.29;34.44;103340.44;5067624;28;20128;-74
2022/03/20 05:00:12;;;;;;;49.53;22.38;;;;;;;2.12;34.71;103355.91;5069777;28;20064;-74
2022/03/20 05:02:39;;;;;;;48.00;22.42;;;;;;;2.11;35.07;103351.53;5070355;28;20127;-74
2022/03/20 05:05:08;;;;;;;56.97;20.67;;;;;;;2.11;34.49;103356.84;5053831;28;20053;-74
2022/03/20 05:07:35;;;;;;;46.03;21.67;;;;;;;2.21;34.50;103363.63;5049811;28;20047;-74
2022/03/20 05:15:36;;;;;;;46.90;21.90;;;;;;;2.07;35.46;103360.47;5049097;28;20136;-73
2022/03/20 05:18:03;;;;;;;51.03;21.98;;;;;;;1.91;35.15;103360.84;5049925;28;20059;-73
2022/03/20 05:20:30;;;;;;;48.03;22.15;;;;;;;2.38;34.90;103361.41;5048059;28;20071;-74
2022/03/20 05:22:56;;;;;;;51.35;21.83;;;;;;;1.65;35.90;103363.28;5070591;28;20048;-74
2022/03/20 05:25:24;;;;;;;51.40;21.17;;;;;;;1.80;35.48;103354.94;5070341;28;20079;-75
2022/03/20 05:27:50;;;;;;;48.83;22.75;;;;;;;1.63;36.00;103360.66;5070240;28;20149;-75
2022/03/20 05:30:17;;;;;;;45.80;20.65;;;;;;;1.95;35.41;103359.88;5070003;28;20087;-74
2022/03/20 05:32:43;;;;;;;48.83;21.73;;;;;;;1.76;35.47;103355.94;5069819;28;20048;-75
2022/03/20 05:35:10;;;;;;;48.72;22.02;;;;;;;2.08;35.40;103363.06;5069279;28;20048;-75
2022/03/20 05:37:37;;;;;;;47.80;21.55;;;;;;;2.14;35.09;103370.88;5069403;28;20142;-74
2022/03/20 05:40:04;;;;;;;45.35;21.30;;;;;;;2.05;34.96;103375.53;5069054;28;20127;-74
2022/03/20 05:42:30;;;;;;;52.67;21.67;;;;;;;2.43;34.46;103380.66;5069750;28;20064;-74
2022/03/20 05:44:57;;;;;;;55.83;22.52;;;;;;;1.91;35.26;103375.84;5070142;28;20127;-74
2022/03/20 05:47:23;;;;;;;53.17;23.00;;;;;;;2.02;34.99;103380.91;5070476;28;20127;-74
2022/03/20 05:49:50;;;;;;;45.92;21.55;;;;;;;2.29;34.59;103374.88;5070299;28;20493;-74
2022/03/20 05:52:16;;;;;;;44.55;21.73;;;;;;;2.08;35.03;103380.75;5069798;28;20106;-74
2022/03/20 05:54:42;;;;;;;46.20;22.42;;;;;;;2.04;34.95;103374.66;5065475;28;20469;-74
2022/03/20 05:59:55;;;;;;;50.08;21.73;;;;;;;2.65;34.29;103378.31;5049694;28;20071;-74
2022/03/20 06:02:22;;;;;;;48.00;20.85;;;;;;;2.32;33.92;103379.22;5050234;28;20094;-76
2022/03/20 06:04:49;;;;;;;45.92;22.10;;;;;;;2.07;34.18;103379.03;5050396;28;20049;-74
2022/03/20 06:07:15;;;;;;;48.25;21.23;;;;;;;2.01;34.71;103377.38;5050377;28;20068;-75
2022/03/20 06:09:42;;;;;;;51.65;22.48;;;;;;;2.21;33.89;103376.88;5049483;28;20045;-74
2022/03/20 06:12:09;;;;;;;49.78;22.80;;;;;;;2.39;34.39;103378.16;5051533;28;20140;-74
2022/03/20 06:14:36;;;;;;;45.42;20.88;;;;;;;2.11;34.33;103372.72;5053092;28;20041;-74
2022/03/20 06:17:05;;;;;;;47.05;21.75;;;;;;;2.68;33.41;103379.97;5053442;28;20063;-75
2022/03/20 06:19:31;;;;;;;49.45;22.25;;;;;;;2.04;34.38;103366.72;5053769;28;20049;-74
2022/03/20 06:21:58;;;;;;;53.97;22.10;;;;;;;2.04;34.18;103369.38;5054456;28;20441;-75
2022/03/20 06:24:25;;;;;;;46.17;21.67;;;;;;;2.09;34.03;103366.59;5053205;28;20049;-74
2022/03/20 06:26:51;;;;;;;43.25;19.67;;;;;;;2.66;32.93;103371.22;5052610;28;20063;-75
2022/03/20 06:29:18;;;;;;;55.60;22.85;;;;;;;2.56;33.53;103375.91;5053814;28;20068;-74
2022/03/20 06:31:48;;;;;;;49.63;20.95;;;;;;;2.78;33.03;103377.94;5052954;28;20128;-74
2022/03/20 06:34:15;;;;;;;53.07;21.17;;;;;;;3.45;31.83;103385.63;5053692;28;20052;-74
2022/03/20 06:36:42;;;;;;;46.70;22.05;;;;;;;2.70;32.75;103388.78;5052939;28;20072;-75
2022/03/20 06:39:08;;;;;;;49.67;21.35;;;;;;;4.07;31.18;103382.69;5052981;28;20132;-74
2022/03/20 06:41:36;;;;;;;45.88;22.00;;;;;;;3.74;31.24;103388.22;5052965;28;20131;-74
2022/03/20 06:44:04;;;;;;;49.15;22.15;;;;;;;3.85;30.53;103399.34;5053023;28;20092;-74
2022/03/20 06:46:33;;;;;;;48.13;22.58;;;;;;;3.71;30.99;103395.44;5053562;28;20128;-74
2022/03/20 06:48:59;;;;;;;52.10;23.35;;;;;;;2.98;31.99;103391.47;5051815;28;20409;-74
2022/03/20 06:51:26;;;;;;;55.08;21.88;;;;;;;3.72;30.87;103390.06;5051877;28;20370;-75
2022/03/20 06:53:53;;;;;;;45.67;21.52;;;;;;;3.74;30.41;103390.88;5055971;28;20060;-75
2022/03/20 06:56:19;;;;;;;50.83;21.10;;;;;;;4.30;29.78;103392.53;5060047;28;20455;-75
2022/03/20 06:58:46;;;;;;;49.08;21.85;;;;;;;4.28;29.65;103399.72;5065268;28;20048;-74
2022/03/20 07:01:13;;;;;;;44.45;21.95;;;;;;;4.25;29.48;103398.00;5072292;28;20072;-75
2022/03/20 07:03:39;;;;;;;49.65;21.88;;;;;;;4.93;28.45;103388.47;5054831;28;20041;-76
2022/03/20 07:06:06;;;;;;;49.20;21.95;;;;;;;4.36;29.02;103387.00;5053502;28;20049;-75
2022/03/20 07:08:32;;;;;;;46.90;21.63;;;;;;;4.54;29.31;103382.84;5001367;28;20124;-75
2022/03/20 07:10:59;;;;;;;51.70;23.50;;;;;;;5.55;27.68;103381.63;5060908;28;20128;-74
2022/03/20 07:16:14;;;;;;;44.97;21.45;;;;;;;5.28;27.55;103379.16;5068906;28;20113;-74
2022/03/20 07:18:45;;;;;;;46.05;22.50;;;;;;;4.87;28.12;103372.78;5072753;28;20048;-74
2022/03/20 07:21:14;;;;;;;46.25;21.67;;;;;;;5.39;27.24;103376.06;5066407;28;20068;-74
2022/03/20 07:23:41;;;;;;;47.33;21.65;;;;;;;5.31;27.62;103372.81;5052194;28;20526;-73
2022/03/20 07:31:38;;;;;;;47.90;22.90;;;;;;;7.45;24.77;103382.97;5031469;28;20045;-74
2022/03/20 07:34:05;;;;;;;44.75;21.65;;;;;;;7.04;24.96;103381.34;5032243;28;20045;-74
2022/03/20 07:36:32;;;;;;;45.83;22.00;;;;;;;5.56;26.52;103364.72;5032703;28;20045;-73
2022/03/20 07:38:58;;;;;;;55.08;23.40;;;;;;;6.21;25.77;103377.03;5032067;28;20546;-74
2022/03/20 07:41:25;;;;;;;61.17;23.60;;;;;;;6.05;26.08;103389.31;5032632;28;20080;-75
2022/03/20 07:43:51;;;;;;;53.58;23.50;;;;;;;6.55;25.46;103385.41;5032436;28;20460;-75
2022/03/20 07:46:18;;;;;;;48.03;21.30;;;;;;;6.95;24.88;103385.31;5066177;28;20170;-75
2022/03/20 07:48:44;;;;;;;56.50;23.02;;;;;;;7.32;24.43;103388.03;5053025;28;20488;-74
2022/03/20 07:51:12;;;;;;;54.50;24.30;;;;;;;8.01;23.74;103380.16;5071386;28;20127;-74
2022/03/20 07:53:38;;;;;;;47.88;22.13;;;;;;;8.03;23.66;103378.28;5071093;28;20068;-73
2022/03/20 07:56:05;;;;;;;49.17;21.90;;;;;;;7.49;24.22;103385.41;5068211;28;20136;-74
2022/03/20 07:58:32;;;;;;;47.30;20.98;;;;;;;6.96;24.49;103375.50;5063431;28;20044;-75
2022/03/20 08:01:14;;;;;;;44.80;22.52;;;;;;;7.24;24.74;103377.72;5058729;28;20489;-74
2022/03/20 08:03:50;;;;;;;49.20;23.98;;;;;;;8.30;23.77;103377.81;5053343;28;20041;-75
2022/03/20 08:06:17;;;;;;;48.83;22.77;;;;;;;7.31;24.06;103381.84;5058013;28;20125;-74
2022/03/20 08:08:45;;;;;;;41.97;21.48;;;;;;;8.18;23.18;103384.66;5071396;28;20072;-74
2022/03/20 08:11:11;;;;;;;47.65;22.95;;;;;;;7.47;23.83;103381.97;5072190;28;20080;-73
2022/03/20 08:13:38;;;;;;;44.83;22.23;;;;;;;7.20;24.69;103386.81;5064212;28;20051;-72
2022/03/20 08:16:05;;;;;;;50.40;23.88;;;;;;;7.80;23.88;103381.22;5053549;28;20087;-72
2022/03/20 08:18:32;;;;;;;45.50;21.75;;;;;;;9.82;21.73;103381.00;5054780;28;20528;-72
2022/03/20 08:20:58;;;;;;;44.72;22.63;;;;;;;9.50;22.32;103377.47;5053804;28;20048;-72
2022/03/20 08:23:25;;;;;;;46.33;23.15;;;;;;;9.65;21.52;103373.06;5072730;28;20068;-72
2022/03/20 08:25:51;;;;;;;47.95;22.40;;;;;;;10.34;21.15;103379.66;5058301;28;20049;-72
2022/03/20 08:28:18;;;;;;;45.80;23.77;;;;;;;11.38;19.54;103379.34;5062208;28;20056;-72
2022/03/20 08:30:44;;;;;;;48.83;22.83;;;;;;;10.29;20.55;103377.25;5073266;28;20052;-73
2022/03/20 08:33:11;;;;;;;40.85;21.92;;;;;;;10.07;20.86;103385.75;5057900;28;20048;-73
2022/03/20 08:35:37;;;;;;;45.55;22.42;;;;;;;9.23;21.86;103379.88;5052812;28;20051;-73
2022/03/20 08:38:04;;;;;;;45.95;21.05;;;;;;;9.03;22.31;103381.00;5052954;28;20056;-72
2022/03/20 08:40:30;;;;;;;46.20;21.98;;;;;;;9.48;21.80;103369.53;5055719;28;20131;-71
2022/03/20 08:42:57;;;;;;;44.10;22.00;;;;;;;10.62;20.63;103370.81;5052705;28;20048;-73
2022/03/20 08:45:29;;;;;;;52.72;23.45;;;;;;;10.76;20.37;103376.19;5072626;28;20135;-74
2022/03/20 08:47:56;;;;;;;43.03;22.73;;;;;;;9.24;21.55;103360.22;5073104;28;20059;-74
2022/03/20 08:50:22;;;;;;;48.50;22.88;;;;;;;8.63;22.51;103363.59;5073558;28;20075;-72
2022/03/20 08:52:49;;;;;;;48.72;23.42;;;;;;;8.54;23.13;103364.97;5072839;28;20148;-71
2022/03/20 08:55:17;;;;;;;45.05;22.55;;;;;;;8.51;22.95;103355.28;5064943;28;20140;-71
2022/03/20 08:57:50;;;;;;;45.58;22.27;;;;;;;8.22;23.43;103351.44;5059414;28;20044;-72
2022/03/20 09:00:18;;;;;;;43.40;20.75;;;;;;;10.02;22.26;103359.19;5054409;28;20086;-71
2022/03/20 09:02:46;;;;;;;46.10;21.80;;;;;;;11.09;20.24;103351.66;5073720;28;20610;-73
2022/03/20 09:05:13;;;;;;;45.42;22.05;;;;;;;11.49;19.62;103350.88;5066450;28;20049;-71
2022/03/20 09:07:41;;;;;;;38.90;22.23;;;;;;;11.79;19.34;103354.22;5053175;28;20433;-72
2022/03/20 09:10:08;;;;;;;43.45;22.65;;;;;;;11.04;19.71;103352.94;5062451;28;20083;-72
2022/03/20 09:12:37;;;;;;;45.33;22.83;;;;;;;10.27;21.03;103347.00;5061183;28;20045;-72
2022/03/20 09:15:06;;;;;;;48.78;21.52;;;;;;;9.70;21.36;103349.53;5051170;28;20048;-71
2022/03/20 09:20:18;;;;;;;47.55;22.00;;;;;;;10.47;20.73;103343.91;5064019;28;20120;-71
2022/03/20 09:22:44;;;;;;;47.38;22.77;;;;;;;10.85;20.40;103340.66;5060812;28;20049;-71
2022/03/20 09:25:11;;;;;;;51.90;22.75;;;;;;;11.61;19.60;103344.66;5043613;28;20065;-71
2022/03/20 09:27:38;;;;;;;45.85;21.65;;;;;;;12.74;18.54;103350.31;5070005;28;20051;-72
2022/03/20 09:30:05;;;;;;;46.03;22.80;;;;;;;13.35;18.02;103336.84;5073616;28;20072;-72
2022/03/20 09:32:32;;;;;;;41.67;22.95;;;;;;;12.19;18.72;103343.41;5073023;28;20123;-73
2022/03/20 09:34:59;;;;;;;40.78;20.70;;;;;;;11.96;18.75;103341.44;5063693;28;20484;-72
2022/03/20 09:37:26;;;;;;;39.55;21.50;;;;;;;12.04;18.81;103345.34;5051064;28;20049;-72
2022/03/20 09:39:52;;;;;;;39.05;21.33;;;;;;;11.31;19.35;103345.75;5051422;28;20036;-72
2022/03/20 09:42:19;;;;;;;44.40;22.73;;;;;;;11.69;19.17;103342.38;5052524;28;20469;-73
2022/03/20 09:44:46;;;;;;;43.08;22.10;;;;;;;11.78;19.12;103339.06;5051463;28;20084;-73
2022/03/20 09:47:17;;;;;;;39.25;21.23;;;;;;;12.00;18.81;103333.06;5059798;28;20057;-72
2022/03/20 09:49:47;;;;;;;50.10;23.48;;;;;;;12.42;18.54;103339.13;5068424;28;20425;-73
2022/03/20 09:52:15;;;;;;;41.90;22.05;;;;;;;12.77;18.08;103323.16;5059048;28;20132;-73
2022/03/20 09:54:41;;;;;;;46.47;21.85;;;;;;;12.60;17.76;103318.94;5056745;28;20127;-73
2022/03/20 09:57:09;;;;;;;39.47;20.70;;;;;;;13.32;17.46;103324.47;5074713;28;20068;-72
2022/03/20 09:59:39;;;;;;;41.05;20.92;;;;;;;11.79;18.61;103323.78;5075914;28;20127;-73
2022/03/20 10:02:10;;;;;;;37.67;19.13;;;;;;;12.49;18.14;103310.78;5074274;28;20072;-73
2022/03/20 10:04:58;;;;;;;38.78;20.42;;;;;;;11.89;18.54;103314.09;5076249;28;20045;-72
2022/03/20 10:07:29;;;;;;;40.65;20.00;;;;;;;13.18;17.42;103305.78;5074021;28;20052;-75
2022/03/20 10:10:17;;;;;;;49.55;20.25;;;;;;;13.85;16.87;103293.56;5075700;28;20132;-75
2022/03/20 10:12:47;;;;;;;34.53;19.70;;;;;;;14.41;16.29;103302.56;5073901;28;20119;-75
2022/03/20 10:15:34;;;;;;;38.58;20.13;;;;;;;14.99;16.03;103303.28;5057892;28;20049;-74
2022/03/20 10:18:18;;;;;;;35.42;19.08;;;;;;;14.84;15.63;103290.16;5065707;28;20048;-74
2022/03/20 10:20:47;;;;;;;35.55;19.40;;;;;;;15.12;15.66;103296.84;5069744;28;20484;-75
2022/03/20 10:23:30;;;;;;;29.33;17.77;;;;;;;14.85;15.54;103300.00;5054879;28;20071;-73
2022/03/20 10:25:59;;;;;;;30.02;16.67;;;;;;;14.28;15.81;103291.88;5063671;28;20052;-75
2022/03/20 10:28:37;;;;;;;29.90;16.92;;;;;;;14.05;15.51;103296.41;5055611;28;20124;-72
2022/03/20 10:31:05;;;;;;;33.92;16.83;;;;;;;13.81;16.03;103292.94;5073940;28;20466;-72
2022/03/20 10:33:35;;;;;;;32.35;17.63;;;;;;;14.03;15.57;103292.97;5063212;28;20131;-73
2022/03/20 10:36:09;;;;;;;31.02;16.73;;;;;;;13.95;15.57;103292.72;5060458;28;20083;-74
2022/03/20 10:38:36;;;;;;;31.60;17.40;;;;;;;14.14;15.71;103297.53;5074429;28;20064;-72
2022/03/20 10:41:22;;;;;;;30.17;15.77;;;;;;;13.48;15.87;103297.19;5060806;28;20405;-72
2022/03/20 10:43:50;;;;;;;32.92;16.83;;;;;;;13.89;15.42;103295.03;5054219;28;20542;-73
2022/03/20 10:46:23;;;;;;;32.47;16.98;;;;;;;14.45;14.96;103292.38;5055811;28;20041;-72
2022/03/20 10:48:54;;;;;;;28.98;16.35;;;;;;;14.17;15.31;103282.94;5064501;28;20045;-71
2022/03/20 10:51:37;;;;;;;;;;;;;;;13.62;15.56;103290.75;5075103;28;20147;-72
2022/03/20 10:54:15;;;;;;;30.15;15.65;;;;;;;13.19;16.25;103277.84;5067720;28;19927;-73
2022/03/20 10:56:59;;;;;;;31.73;16.88;;;;;;;14.34;15.46;103278.88;5039711;28;20044;-74
2022/03/20 10:59:27;;;;;;;33.38;16.38;;;;;;;14.52;14.99;103280.94;5074860;28;20072;-75
2022/03/20 11:01:54;;;;;;;34.10;16.95;;;;;;;14.74;15.22;103274.72;5064719;28;20128;-75
2022/03/20 11:04:23;;;;;;;31.60;16.50;;;;;;;15.19;14.87;103271.88;5055908;28;20122;-75
2022/03/20 11:06:54;;;;;;;30.42;15.90;;;;;;;14.20;15.14;103264.66;5064598;28;20044;-74
2022/03/20 11:09:21;;;;;;;30.08;16.73;;;;;;;13.19;15.84;103263.50;5065423;28;20098;-75
2022/03/20 11:11:51;;;;;;;26.35;15.38;;;;;;;13.28;15.94;103273.56;5054798;28;20051;-74
2022/03/20 11:14:20;;;;;;;32.58;16.20;;;;;;;14.24;15.39;103263.41;5068912;28;20052;-75
2022/03/20 11:16:51;;;;;;;30.08;15.32;;;;;;;12.74;16.32;103264.13;5073145;28;20539;-75
2022/03/20 11:19:23;;;;;;;29.25;16.10;;;;;;;12.21;16.87;103249.09;5073913;28;20044;-74
2022/03/20 11:21:52;;;;;;;;;;;;;;;11.71;17.24;103246.31;5064526;28;20461;-75
2022/03/20 11:24:19;;;;;;;30.50;14.70;;;;;;;12.87;16.46;103259.53;5056097;28;19927;-74
2022/03/20 11:26:50;;;;;;;29.20;15.57;;;;;;;13.61;15.89;103250.44;5050666;28;20472;-74
2022/03/20 11:29:21;;;;;;;26.48;14.57;;;;;;;13.70;15.18;103236.19;5069497;28;20514;-73
2022/03/20 11:31:48;;;;;;;25.35;15.10;;;;;;;13.37;15.66;103235.16;5072117;28;20041;-76
2022/03/20 11:34:16;;;;;;;28.67;14.70;;;;;;;14.13;15.15;103238.25;5068202;28;20048;-76
2022/03/20 11:37:04;;;;;;;24.38;13.50;;;;;;;14.54;14.49;103234.94;5067062;28;20140;-75
2022/03/20 11:39:31;;;;;;;27.83;13.75;;;;;;;14.96;14.19;103217.03;5054709;28;20118;-76
2022/03/20 11:42:20;;;;;;;30.23;14.07;;;;;;;15.46;13.81;103213.72;5054811;28;20083;-75
2022/03/20 11:44:59;;;;;;;28.38;14.70;;;;;;;15.76;13.55;103217.50;5073550;28;20040;-74
2022/03/20 11:47:29;;;;;;;27.23;15.27;;;;;;;15.61;13.67;103211.56;5070064;28;20044;-76
2022/03/20 11:50:09;;;;;;;25.63;15.77;;;;;;;16.54;13.19;103197.00;5071805;28;20068;-73
2022/03/20 11:52:55;;;;;;;26.08;15.30;;;;;;;16.93;12.69;103195.22;5061008;28;20045;-74
2022/03/20 11:55:47;;;;;;;29.48;16.23;;;;;;;16.53;13.19;103204.28;5067979;28;20496;-72
2022/03/20 11:58:17;;;;;;;30.70;15.32;;;;;;;16.88;13.24;103190.22;5043925;28;20079;-72
2022/03/20 12:00:45;;;;;;;30.33;16.00;;;;;;;16.31;13.34;103190.94;5066925;28;20075;-73